Time;durP1;ratioP1;P1;durP2;ratioP2;P2;SDS_P1;SDS_P2;PMS_P1;PMS_P2;Temp;Humidity;BMP_temperature;BMP_pressure;BME280_temperature;BME280_humidity;BME280_pressure;Samples;Min_cycle;Max_cycle;Signal;HPM_P1;HPM_P2
2023/11/29 00:02:51;;;;;;;2.13;1.10;;;19.80;53.30;;;;;;8364082;28;20053;-52
2023/11/29 00:06:52;;;;;;;2.47;1.00;;;19.80;53.20;;;;;;8364166;28;20041;-54
2023/11/29 00:10:53;;;;;;;3.10;1.10;;;19.90;53.00;;;;;;8363868;28;20037;-53
2023/11/29 00:14:53;;;;;;;7.93;1.83;;;19.80;53.00;;;;;;8363952;28;20037;-52
2023/11/29 00:18:54;;;;;;;7.28;1.83;;;19.80;53.30;;;;;;8362539;28;20037;-52
2023/11/29 00:22:55;;;;;;;6.00;1.83;;;19.80;53.20;;;;;;8363395;28;20383;-52
2023/11/29 00:26:56;;;;;;;4.80;1.40;;;19.80;53.00;;;;;;8363535;28;20033;-53
2023/11/29 00:30:56;;;;;;;4.78;1.33;;;19.80;53.00;;;;;;8363700;28;20446;-53
2023/11/29 00:34:57;;;;;;;3.25;1.40;;;19.80;53.00;;;;;;8362117;28;20367;-52
2023/11/29 00:38:58;;;;;;;4.82;1.10;;;19.80;52.80;;;;;;8361782;28;20029;-52
2023/11/29 00:42:59;;;;;;;4.03;1.30;;;19.80;52.80;;;;;;8363247;28;20479;-53
2023/11/29 00:46:59;;;;;;;2.92;1.00;;;19.80;52.80;;;;;;8363021;28;20037;-53
2023/11/29 00:51:00;;;;;;;4.35;1.27;;;19.70;52.80;;;;;;8362953;28;20549;-52
2023/11/29 00:55:01;;;;;;;2.60;1.33;;;19.80;52.70;;;;;;8362640;28;20037;-53
2023/11/29 00:59:01;;;;;;;4.65;1.10;;;19.70;52.70;;;;;;8362584;28;20372;-52
2023/11/29 01:03:02;;;;;;;1.98;1.13;;;19.70;52.70;;;;;;8362318;28;20552;-53
2023/11/29 01:07:03;;;;;;;5.70;1.25;;;19.80;52.60;;;;;;8362397;28;20044;-53
2023/11/29 01:11:05;;;;;;;2.67;0.85;;;19.80;52.70;;;;;;8362038;28;20124;-53
2023/11/29 01:15:06;;;;;;;3.58;1.30;;;19.70;52.80;;;;;;8362303;28;20032;-52
2023/11/29 01:19:07;;;;;;;3.65;1.30;;;19.60;52.90;;;;;;8361936;28;20048;-53
2023/11/29 01:23:08;;;;;;;1.63;1.00;;;19.70;52.90;;;;;;8361851;28;20037;-52
2023/11/29 01:27:11;;;;;;;1.45;1.05;;;19.70;52.90;;;;;;8361707;28;20475;-52
2023/11/29 01:31:12;;;;;;;2.28;1.00;;;19.70;52.60;;;;;;8361249;28;20443;-53
2023/11/29 01:35:13;;;;;;;2.53;1.40;;;19.70;52.60;;;;;;8361408;28;20036;-53
2023/11/29 01:39:14;;;;;;;2.65;1.35;;;19.70;52.50;;;;;;8361159;28;20055;-53
2023/11/29 01:43:15;;;;;;;2.00;1.00;;;19.70;52.50;;;;;;8361332;28;20048;-53
2023/11/29 01:47:17;;;;;;;3.60;1.00;;;19.70;52.60;;;;;;8361161;28;20098;-52
2023/11/29 01:51:17;;;;;;;2.03;0.82;;;19.70;52.60;;;;;;8361596;28;20029;-51
2023/11/29 01:55:21;;;;;;;1.52;0.88;;;19.70;52.50;;;;;;8360901;28;20040;-50
2023/11/29 01:59:22;;;;;;;2.10;1.10;;;19.70;52.40;;;;;;8360999;28;20021;-50
2023/11/29 02:03:22;;;;;;;2.40;0.95;;;19.70;52.40;;;;;;8359472;28;20057;-49
2023/11/29 02:07:23;;;;;;;2.88;1.10;;;19.70;52.40;;;;;;8359397;28;20044;-49
2023/11/29 02:11:26;;;;;;;2.33;1.48;;;19.70;52.40;;;;;;8360659;28;20539;-52
2023/11/29 02:15:28;;;;;;;1.23;0.85;;;19.60;52.50;;;;;;8360526;28;20049;-51
2023/11/29 02:19:29;;;;;;;3.30;0.90;;;19.60;52.60;;;;;;8360319;28;20040;-51
2023/11/29 02:23:44;;;;;;;1.25;0.82;;;19.60;52.50;;;;;;8359022;28;20033;-50
2023/11/29 02:27:45;;;;;;;1.17;0.88;;;19.60;52.30;;;;;;8359925;28;20068;-49
2023/11/29 02:31:46;;;;;;;2.72;1.20;;;19.70;52.30;;;;;;8360094;28;20033;-49
2023/11/29 02:35:46;;;;;;;1.10;0.95;;;19.70;52.30;;;;;;8359860;28;20048;-49
2023/11/29 02:39:47;;;;;;;2.33;0.90;;;19.70;52.20;;;;;;8359045;28;20029;-51
2023/11/29 02:43:51;;;;;;;1.35;0.70;;;19.60;52.20;;;;;;8359731;28;20025;-49
2023/11/29 02:47:52;;;;;;;2.78;1.10;;;19.60;52.10;;;;;;8359719;28;20045;-50
2023/11/29 02:51:53;;;;;;;1.40;0.90;;;19.70;52.10;;;;;;8359847;28;20045;-48
2023/11/29 02:55:53;;;;;;;0.80;0.80;;;19.60;52.10;;;;;;8359380;28;20399;-50
2023/11/29 02:59:54;;;;;;;1.15;1.00;;;19.60;52.10;;;;;;8359451;28;20033;-50
2023/11/29 03:03:55;;;;;;;2.22;0.80;;;19.60;52.10;;;;;;8359543;28;20049;-50
2023/11/29 03:07:55;;;;;;;1.58;0.57;;;19.60;52.00;;;;;;8359485;28;20514;-52
2023/11/29 03:11:56;;;;;;;1.10;0.98;;;19.60;52.00;;;;;;8359074;28;20162;-49
2023/11/29 03:15:57;;;;;;;1.55;0.80;;;19.50;52.20;;;;;;8359410;28;20120;-49
2023/11/29 03:19:57;;;;;;;0.82;0.77;;;19.50;52.20;;;;;;8359109;28;20037;-50
2023/11/29 03:23:58;;;;;;;2.03;1.00;;;19.50;52.10;;;;;;8359053;28;20091;-50
2023/11/29 03:27:59;;;;;;;1.15;0.80;;;19.60;52.10;;;;;;8359225;28;20033;-51
2023/11/29 03:31:59;;;;;;;0.85;0.73;;;19.60;52.00;;;;;;8359249;28;20426;-51
2023/11/29 03:36:00;;;;;;;2.78;0.82;;;19.60;51.80;;;;;;8358959;28;20102;-49
2023/11/29 03:40:01;;;;;;;1.27;1.08;;;19.60;51.90;;;;;;8358894;28;20044;-49
2023/11/29 03:44:02;;;;;;;0.93;0.73;;;19.60;51.80;;;;;;8358908;28;20032;-48
2023/11/29 03:48:02;;;;;;;0.73;0.73;;;19.60;51.80;;;;;;8358908;28;20112;-48
2023/11/29 03:52:03;;;;;;;0.63;0.60;;;19.60;51.80;;;;;;8360999;28;20055;-49
2023/11/29 03:56:05;;;;;;;1.90;1.08;;;19.60;51.70;;;;;;8364542;28;20490;-49
2023/11/29 04:00:07;;;;;;;0.80;0.80;;;19.50;51.60;;;;;;8364523;28;20048;-52
2023/11/29 04:04:08;;;;;;;0.93;0.60;;;19.60;51.60;;;;;;8364130;28;20052;-50
2023/11/29 04:08:09;;;;;;;1.58;0.80;;;19.60;51.70;;;;;;8364098;28;20068;-50
2023/11/29 04:12:09;;;;;;;1.60;1.00;;;19.60;51.70;;;;;;8364239;28;20033;-49
2023/11/29 04:16:26;;;;;;;2.08;1.00;;;19.50;52.10;;;;;;8363894;28;20033;-50
2023/11/29 04:20:27;;;;;;;0.70;0.70;;;19.40;52.00;;;;;;8363754;28;20025;-48
2023/11/29 04:24:29;;;;;;;1.33;0.93;;;19.50;51.90;;;;;;8363651;28;20036;-50
2023/11/29 04:28:29;;;;;;;1.48;0.80;;;19.50;51.80;;;;;;8362336;28;20040;-50
2023/11/29 04:32:30;;;;;;;1.00;0.90;;;19.50;51.70;;;;;;8363194;28;20033;-50
2023/11/29 04:36:30;;;;;;;0.70;0.70;;;19.50;51.70;;;;;;8363112;28;20025;-50
2023/11/29 04:40:31;;;;;;;0.70;0.70;;;19.50;51.70;;;;;;8363438;28;20025;-49
2023/11/29 04:44:32;;;;;;;0.80;0.80;;;19.50;51.60;;;;;;8363061;28;20044;-49
2023/11/29 04:48:34;;;;;;;1.60;0.90;;;19.50;51.60;;;;;;8362836;28;20037;-48
2023/11/29 04:52:35;;;;;;;0.90;0.70;;;19.50;51.60;;;;;;8362942;28;20043;-51
2023/11/29 04:56:36;;;;;;;1.73;0.95;;;19.50;51.50;;;;;;8362579;28;20048;-49
2023/11/29 05:00:36;;;;;;;1.05;0.73;;;19.50;51.60;;;;;;8361204;28;20029;-49
2023/11/29 05:04:37;;;;;;;1.02;0.80;;;19.50;51.60;;;;;;8361722;28;20053;-49
2023/11/29 05:08:38;;;;;;;1.00;0.93;;;19.50;51.50;;;;;;8362381;28;20037;-50
2023/11/29 05:12:40;;;;;;;1.02;0.70;;;19.50;51.60;;;;;;8362161;28;20379;-50
2023/11/29 05:16:41;;;;;;;0.63;0.63;;;19.50;51.90;;;;;;8362502;28;20033;-51
2023/11/29 05:20:42;;;;;;;1.23;0.60;;;19.50;51.70;;;;;;8361885;28;20025;-50
2023/11/29 05:24:43;;;;;;;0.75;0.60;;;19.50;51.60;;;;;;8361895;28;20025;-50
2023/11/29 05:28:43;;;;;;;0.60;0.57;;;19.60;51.60;;;;;;8361723;28;20091;-48
2023/11/29 05:32:45;;;;;;;0.50;0.50;;;19.60;51.50;;;;;;8361513;28;20407;-50
2023/11/29 05:36:46;;;;;;;1.65;0.60;;;19.60;51.40;;;;;;8361690;28;20068;-49
2023/11/29 05:40:47;;;;;;;1.05;0.50;;;19.60;51.30;;;;;;8361444;28;20033;-49
2023/11/29 05:44:49;;;;;;;1.05;0.77;;;19.70;51.30;;;;;;8361302;28;20040;-50
2023/11/29 05:48:50;;;;;;;0.73;0.60;;;19.70;51.20;;;;;;8361085;28;20064;-48
2023/11/29 05:52:50;;;;;;;0.75;0.70;;;19.70;51.20;;;;;;8361197;28;20029;-50
2023/11/29 05:56:51;;;;;;;0.80;0.70;;;19.70;51.10;;;;;;8360866;28;20037;-49
2023/11/29 06:00:52;;;;;;;1.48;0.70;;;19.70;51.00;;;;;;8360780;28;20037;-51
2023/11/29 06:04:53;;;;;;;0.90;0.70;;;19.70;51.10;;;;;;8360443;28;20045;-49
2023/11/29 06:08:54;;;;;;;0.60;0.60;;;19.70;51.00;;;;;;8360720;28;20037;-51
2023/11/29 06:12:55;;;;;;;0.50;0.50;;;19.70;51.00;;;;;;8360490;28;20049;-50
2023/11/29 06:16:55;;;;;;;0.85;0.73;;;19.70;51.30;;;;;;8360114;28;20176;-50
2023/11/29 06:20:56;;;;;;;0.95;0.60;;;19.70;51.20;;;;;;8360388;28;20429;-51
2023/11/29 06:24:57;;;;;;;1.10;0.73;;;19.70;51.10;;;;;;8359922;28;20029;-51
2023/11/29 06:29:00;;;;;;;1.33;0.70;;;19.70;51.10;;;;;;8359916;28;20694;-51
2023/11/29 06:33:01;;;;;;;0.57;0.57;;;19.70;51.10;;;;;;8360134;28;20033;-51
2023/11/29 06:37:02;;;;;;;1.05;0.52;;;19.70;51.10;;;;;;8359830;28;20036;-51
2023/11/29 06:41:03;;;;;;;0.85;0.60;;;19.70;51.10;;;;;;8359549;28;20029;-49
2023/11/29 06:45:05;;;;;;;0.75;0.60;;;19.70;51.00;;;;;;8360025;28;20033;-51
2023/11/29 06:49:07;;;;;;;0.73;0.70;;;19.70;51.00;;;;;;8359673;28;20039;-50
2023/11/29 06:53:07;;;;;;;1.05;0.60;;;19.70;50.80;;;;;;8359705;28;20037;-51
2023/11/29 06:57:08;;;;;;;0.98;0.60;;;19.70;50.90;;;;;;8359469;28;20044;-51
2023/11/29 07:01:10;;;;;;;0.75;0.63;;;19.70;50.90;;;;;;8359599;28;20441;-49
2023/11/29 07:05:10;;;;;;;0.60;0.60;;;19.70;50.80;;;;;;8359358;28;20053;-51
2023/11/29 07:09:13;;;;;;;0.68;0.68;;;19.70;50.80;;;;;;8359520;28;20091;-50
2023/11/29 07:13:14;;;;;;;0.70;0.70;;;19.70;50.70;;;;;;8359166;28;20033;-50
2023/11/29 07:17:15;;;;;;;0.70;0.60;;;19.70;51.10;;;;;;8359321;28;20498;-51
2023/11/29 07:21:16;;;;;;;0.75;0.63;;;19.70;51.00;;;;;;8359289;28;20444;-49
2023/11/29 07:25:16;;;;;;;1.15;0.98;;;19.70;50.90;;;;;;8359109;28;20040;-52
2023/11/29 07:29:17;;;;;;;0.88;0.80;;;19.70;50.80;;;;;;8365111;28;20509;-51
2023/11/29 07:33:18;;;;;;;0.52;0.52;;;19.70;50.80;;;;;;8365503;28;20390;-50
2023/11/29 07:37:20;;;;;;;0.50;0.50;;;19.70;50.80;;;;;;8364979;28;20037;-49
2023/11/29 07:41:22;;;;;;;0.52;0.50;;;19.70;50.80;;;;;;8365091;28;20025;-51
2023/11/29 07:45:22;;;;;;;0.52;0.52;;;19.70;50.80;;;;;;8364019;28;20495;-50
2023/11/29 07:49:23;;;;;;;1.05;0.70;;;19.70;50.80;;;;;;8365004;28;20087;-52
2023/11/29 07:53:24;;;;;;;0.40;0.40;;;19.70;50.70;;;;;;8364815;28;20379;-49
2023/11/29 07:57:24;;;;;;;0.82;0.82;;;19.70;50.70;;;;;;8364871;28;20033;-49
2023/11/29 08:01:26;;;;;;;0.47;0.45;;;19.70;50.60;;;;;;8364452;28;20037;-50
2023/11/29 08:05:27;;;;;;;0.73;0.50;;;19.70;50.60;;;;;;8364442;28;20025;-49
2023/11/29 08:09:28;;;;;;;0.60;0.55;;;19.70;50.50;;;;;;8364309;28;20502;-50
2023/11/29 08:13:29;;;;;;;0.70;0.60;;;19.70;50.60;;;;;;8364370;28;20245;-51
2023/11/29 08:17:31;;;;;;;0.70;0.70;;;19.70;50.90;;;;;;8364101;28;20033;-50
2023/11/29 08:21:32;;;;;;;0.47;0.47;;;19.70;50.80;;;;;;8363986;28;20107;-49
2023/11/29 08:25:33;;;;;;;0.60;0.60;;;19.70;50.70;;;;;;8363904;28;20506;-49
2023/11/29 08:29:34;;;;;;;1.25;0.70;;;19.70;50.70;;;;;;8364076;28;20029;-49
2023/11/29 08:33:37;;;;;;;0.70;0.63;;;19.70;50.50;;;;;;8363652;28;20037;-49
2023/11/29 08:37:38;;;;;;;1.33;0.68;;;19.80;50.60;;;;;;8362415;28;20429;-51
2023/11/29 08:41:39;;;;;;;0.60;0.60;;;19.70;50.50;;;;;;8363156;28;20025;-51
2023/11/29 08:45:40;;;;;;;;;;;19.80;50.60;;;;;;8363770;28;20090;-51
2023/11/29 08:49:40;;;;;;;1.60;0.70;;;19.70;50.40;;;;;;8363141;28;19911;-50
2023/11/29 08:53:42;;;;;;;0.82;0.52;;;19.70;50.50;;;;;;8362987;28;20406;-53
2023/11/29 08:57:43;;;;;;;0.80;0.60;;;19.70;50.50;;;;;;8361672;28;20657;-53
2023/11/29 09:01:43;;;;;;;0.60;0.60;;;19.70;50.50;;;;;;8362289;28;20400;-53
2023/11/29 09:05:44;;;;;;;0.65;0.65;;;19.70;50.50;;;;;;8363205;28;20043;-53
2023/11/29 09:09:47;;;;;;;0.40;0.40;;;19.70;50.40;;;;;;8362524;28;20517;-52
2023/11/29 09:13:48;;;;;;;0.50;0.50;;;19.80;50.50;;;;;;8362151;28;20647;-52
2023/11/29 09:17:50;;;;;;;;;;;19.70;50.80;;;;;;8362693;28;20572;-52
2023/11/29 09:21:50;;;;;;;1.00;0.60;;;19.70;50.60;;;;;;8362016;28;20580;-53
2023/11/29 09:25:51;;;;;;;0.60;0.57;;;19.70;50.50;;;;;;8361784;28;20059;-53
2023/11/29 09:29:52;;;;;;;0.55;0.50;;;19.70;50.40;;;;;;8362017;28;20036;-52
2023/11/29 09:33:52;;;;;;;0.60;0.50;;;19.70;50.40;;;;;;8361827;28;20041;-53
2023/11/29 09:37:53;;;;;;;0.50;0.50;;;19.70;50.30;;;;;;8361754;28;20040;-53
2023/11/29 09:41:59;;;;;;;0.90;0.50;;;19.80;50.60;;;;;;8361353;28;20049;-52
2023/11/29 09:46:00;;;;;;;0.50;0.50;;;19.80;50.30;;;;;;8361135;28;20021;-53
2023/11/29 09:50:01;;;;;;;0.50;0.50;;;19.70;50.30;;;;;;8360853;28;20041;-52
2023/11/29 09:54:03;;;;;;;0.68;0.60;;;19.80;50.30;;;;;;8361054;28;20040;-54
2023/11/29 09:58:04;;;;;;;0.73;0.50;;;19.80;50.30;;;;;;8360803;28;20029;-54
2023/11/29 10:02:05;;;;;;;0.70;0.50;;;19.80;50.30;;;;;;8359421;28;20041;-52
2023/11/29 10:06:06;;;;;;;0.52;0.52;;;19.70;50.30;;;;;;8360770;28;20091;-50
2023/11/29 10:10:07;;;;;;;0.43;0.43;;;19.70;50.30;;;;;;8360396;28;20040;-51
2023/11/29 10:14:08;;;;;;;;;;;19.70;50.40;;;;;;8360800;28;20398;-51
2023/11/29 10:18:09;;;;;;;0.40;0.40;;;19.70;50.70;;;;;;8360263;28;19971;-49
2023/11/29 10:22:13;;;;;;;0.52;0.50;;;19.70;50.40;;;;;;8360227;28;20112;-50
2023/11/29 10:26:14;;;;;;;0.60;0.60;;;19.70;50.30;;;;;;8359895;28;20095;-51
2023/11/29 10:30:17;;;;;;;0.60;0.60;;;19.70;50.40;;;;;;8360266;28;20033;-49
2023/11/29 10:34:18;;;;;;;0.40;0.40;;;19.70;50.30;;;;;;8359875;28;20091;-52
2023/11/29 10:38:23;;;;;;;0.43;0.43;;;19.70;50.20;;;;;;8359728;28;20482;-50
2023/11/29 10:42:23;;;;;;;0.50;0.40;;;19.70;50.30;;;;;;8359847;28;20017;-49
2023/11/29 10:46:32;;;;;;;1.10;0.60;;;19.70;50.20;;;;;;8359624;28;20044;-51
2023/11/29 10:50:36;;;;;;;0.38;0.35;;;19.70;50.20;;;;;;8359688;28;20450;-49
2023/11/29 10:54:37;;;;;;;0.40;0.40;;;19.70;50.20;;;;;;8359737;28;20115;-49
2023/11/29 10:58:48;;;;;;;0.30;0.30;;;19.70;50.20;;;;;;8359388;28;20111;-49
2023/11/29 11:02:51;;;;;;;0.40;0.40;;;19.70;50.20;;;;;;8362888;28;20072;-49
2023/11/29 11:06:52;;;;;;;0.40;0.40;;;19.70;50.20;;;;;;8366103;28;20040;-52
2023/11/29 11:10:52;;;;;;;0.50;0.50;;;19.70;50.20;;;;;;8365995;28;20120;-51
2023/11/29 11:14:54;;;;;;;0.93;0.60;;;19.60;50.40;;;;;;8366070;28;20436;-49
2023/11/29 11:18:55;;;;;;;0.55;0.50;;;19.60;50.60;;;;;;8365976;28;20174;-51
2023/11/29 11:22:56;;;;;;;0.50;0.50;;;19.60;50.40;;;;;;8366036;28;20032;-50
2023/11/29 11:27:07;;;;;;;0.50;0.45;;;19.60;50.40;;;;;;8365608;28;20040;-50
2023/11/29 11:31:09;;;;;;;0.75;0.40;;;19.70;50.30;;;;;;8365417;28;20504;-50
2023/11/29 11:35:23;;;;;;;0.40;0.40;;;19.70;50.30;;;;;;8365553;28;20699;-49
2023/11/29 11:39:25;;;;;;;0.40;0.40;;;19.70;50.30;;;;;;8365478;28;20020;-52
2023/11/29 11:43:26;;;;;;;0.50;0.50;;;19.70;50.10;;;;;;8365039;28;20041;-49
2023/11/29 11:47:27;;;;;;;0.43;0.40;;;19.70;50.20;;;;;;8364972;28;20513;-51
2023/11/29 11:51:28;;;;;;;0.50;0.50;;;19.70;50.20;;;;;;8364971;28;20455;-48
2023/11/29 11:55:29;;;;;;;0.57;0.50;;;19.70;50.20;;;;;;8364506;28;20052;-50
2023/11/29 11:59:30;;;;;;;;;;;19.70;50.20;;;;;;8365054;28;20029;-50
2023/11/29 12:03:30;;;;;;;0.40;0.40;;;19.60;50.10;;;;;;8363279;28;20500;-50
2023/11/29 12:07:32;;;;;;;0.60;0.60;;;19.60;50.10;;;;;;8364327;28;20029;-50
2023/11/29 12:11:32;;;;;;;0.40;0.40;;;19.60;50.20;;;;;;8363199;28;20391;-51
2023/11/29 12:15:34;;;;;;;0.40;0.40;;;19.60;50.60;;;;;;8363997;28;20036;-51
2023/11/29 12:19:34;;;;;;;;;;;19.50;50.60;;;;;;8364547;28;20036;-49
2023/11/29 12:23:40;;;;;;;0.60;0.40;;;19.60;50.40;;;;;;8364040;28;19913;-54
2023/11/29 12:27:44;;;;;;;0.70;0.60;;;19.60;50.40;;;;;;8363772;28;20029;-52
2023/11/29 12:31:45;;;;;;;0.40;0.40;;;19.60;50.30;;;;;;8363610;28;20470;-54
2023/11/29 12:35:45;;;;;;;0.40;0.40;;;19.60;50.20;;;;;;8362557;28;20173;-53
2023/11/29 12:39:46;;;;;;;0.30;0.30;;;19.60;50.10;;;;;;8363491;28;20040;-54
2023/11/29 12:43:47;;;;;;;0.50;0.50;;;19.60;50.10;;;;;;8363784;28;20033;-53
2023/11/29 12:47:47;;;;;;;0.40;0.40;;;19.70;50.10;;;;;;8363405;28;20387;-53
2023/11/29 12:51:48;;;;;;;0.30;0.30;;;19.60;50.10;;;;;;8362839;28;20494;-53
2023/11/29 12:55:48;;;;;;;0.50;0.50;;;19.60;50.10;;;;;;8363186;28;20048;-53
2023/11/29 12:59:49;;;;;;;0.40;0.40;;;19.60;50.10;;;;;;8363490;28;20067;-52
2023/11/29 13:03:50;;;;;;;0.40;0.40;;;19.60;50.10;;;;;;8362585;28;20494;-52
2023/11/29 13:07:51;;;;;;;0.50;0.50;;;19.60;50.10;;;;;;8362517;28;20040;-52
2023/11/29 13:11:52;;;;;;;0.40;0.40;;;19.60;50.10;;;;;;8362621;28;20483;-53
2023/11/29 13:15:52;;;;;;;0.40;0.40;;;19.60;50.40;;;;;;8362066;28;20041;-52
2023/11/29 13:19:53;;;;;;;1.55;0.68;;;19.50;50.60;;;;;;8362308;28;20037;-54
2023/11/29 13:23:54;;;;;;;2.65;1.00;;;19.20;49.00;;;;;;8360178;28;20158;-55
2023/11/29 13:27:54;;;;;;;1.88;1.02;;;19.20;46.80;;;;;;8361713;28;20036;-54
2023/11/29 13:31:55;;;;;;;19.27;1.65;;;19.30;46.50;;;;;;8351307;28;20433;-55
2023/11/29 13:35:56;;;;;;;2.03;0.82;;;19.60;46.80;;;;;;8347335;28;20561;-53
2023/11/29 13:39:57;;;;;;;1.25;0.88;;;19.70;46.70;;;;;;8344436;28;20060;-53
2023/11/29 13:43:58;;;;;;;1.65;1.10;;;19.70;46.70;;;;;;8328579;28;20034;-53
2023/11/29 13:47:58;;;;;;;1.80;0.90;;;19.80;47.00;;;;;;8340837;28;20091;-53
2023/11/29 13:51:59;;;;;;;1.00;0.82;;;19.80;47.00;;;;;;8361344;28;20065;-55
2023/11/29 13:56:00;;;;;;;1.77;0.98;;;19.80;47.20;;;;;;8360834;28;20033;-54
2023/11/29 14:00:00;;;;;;;1.88;0.98;;;19.80;47.30;;;;;;8360412;28;20033;-51
2023/11/29 14:04:01;;;;;;;0.50;0.50;;;19.90;47.50;;;;;;8356225;28;20103;-53
2023/11/29 14:08:02;;;;;;;0.63;0.63;;;19.90;47.60;;;;;;8327649;28;20509;-52
2023/11/29 14:12:03;;;;;;;1.80;1.05;;;19.90;47.80;;;;;;8327225;28;20491;-54
2023/11/29 14:16:04;;;;;;;0.60;0.60;;;19.80;48.30;;;;;;8327199;28;20383;-54
2023/11/29 14:20:08;;;;;;;4.47;1.17;;;19.90;48.10;;;;;;8327314;28;20079;-53
2023/11/29 14:24:08;;;;;;;1.40;0.82;;;19.90;48.10;;;;;;8327079;28;20037;-52
2023/11/29 14:28:09;;;;;;;1.67;0.82;;;19.90;48.10;;;;;;8348065;28;20666;-57
2023/11/29 14:32:10;;;;;;;1.25;0.75;;;19.90;48.30;;;;;;8353378;28;20033;-56
2023/11/29 14:36:11;;;;;;;1.35;1.10;;;19.90;48.50;;;;;;8358599;28;20056;-57
2023/11/29 14:40:12;;;;;;;5.70;1.50;;;19.80;48.50;;;;;;8338547;28;20079;-53
2023/11/29 14:44:13;;;;;;;1.98;1.42;;;19.80;48.60;;;;;;8326810;28;20037;-56
2023/11/29 14:48:14;;;;;;;3.10;1.40;;;19.90;48.70;;;;;;8326544;28;20041;-55
2023/11/29 14:52:14;;;;;;;1.52;1.00;;;19.80;48.60;;;;;;8326681;28;20041;-57
2023/11/29 14:56:15;;;;;;;3.33;1.00;;;19.80;48.60;;;;;;8331827;28;20371;-55
2023/11/29 15:00:16;;;;;;;4.30;1.20;;;19.80;48.60;;;;;;8359835;28;20056;-56
2023/11/29 15:04:17;;;;;;;2.42;1.20;;;19.80;48.80;;;;;;8359330;28;20037;-55
2023/11/29 15:08:17;;;;;;;1.95;0.90;;;19.80;48.80;;;;;;8360210;28;20111;-57
2023/11/29 15:12:18;;;;;;;1.35;0.80;;;19.70;48.90;;;;;;8359365;28;20039;-56
2023/11/29 15:16:19;;;;;;;;;;;19.70;49.00;;;;;;8359641;28;20045;-56
2023/11/29 15:20:20;;;;;;;2.60;1.13;;;19.70;49.20;;;;;;8359329;28;19912;-55
2023/11/29 15:24:20;;;;;;;2.08;0.98;;;19.70;49.40;;;;;;8359778;28;20037;-55
2023/11/29 15:28:23;;;;;;;1.33;0.90;;;19.70;49.20;;;;;;8358969;28;20060;-56
2023/11/29 15:32:23;;;;;;;1.17;0.98;;;19.80;49.20;;;;;;8358061;28;20437;-55
2023/11/29 15:36:24;;;;;;;2.83;1.20;;;19.80;49.30;;;;;;8355946;28;20095;-53
2023/11/29 15:40:25;;;;;;;3.97;1.52;;;19.90;49.20;;;;;;8337465;28;20032;-54
2023/11/29 15:44:26;;;;;;;2.80;0.80;;;19.90;49.10;;;;;;8357340;28;20025;-53
2023/11/29 15:48:27;;;;;;;;;;;19.90;49.20;;;;;;8328802;28;20036;-49
2023/11/29 15:52:27;;;;;;;5.90;1.40;;;19.90;49.60;;;;;;8331403;28;19909;-52
2023/11/29 15:56:32;;;;;;;2.25;1.17;;;20.10;50.00;;;;;;8360605;28;20291;-53
2023/11/29 16:00:32;;;;;;;3.78;0.95;;;20.10;50.00;;;;;;8364862;28;20033;-52
2023/11/29 16:04:33;;;;;;;2.33;0.88;;;20.10;49.90;;;;;;8364286;28;20045;-55
2023/11/29 16:08:34;;;;;;;4.38;1.25;;;20.10;50.00;;;;;;8362792;28;20041;-54
2023/11/29 16:12:35;;;;;;;5.65;1.27;;;20.10;49.90;;;;;;8341794;28;20499;-48
2023/11/29 16:16:35;;;;;;;2.72;1.38;;;20.10;50.00;;;;;;8330816;28;20041;-55
2023/11/29 16:20:36;;;;;;;3.30;1.23;;;20.00;50.00;;;;;;8330844;28;20471;-54
2023/11/29 16:24:37;;;;;;;2.30;1.30;;;20.00;49.90;;;;;;8330999;28;20035;-53
2023/11/29 16:28:38;;;;;;;2.80;1.40;;;20.00;49.80;;;;;;8355326;28;20112;-54
2023/11/29 16:32:39;;;;;;;3.25;1.30;;;20.00;49.80;;;;;;8363418;28;20037;-55
2023/11/29 16:36:40;;;;;;;2.70;1.08;;;20.00;49.80;;;;;;8356601;28;20037;-52
2023/11/29 16:40:41;;;;;;;3.08;1.25;;;20.00;49.90;;;;;;8334097;28;20229;-52
2023/11/29 16:44:42;;;;;;;8.50;1.48;;;20.00;50.00;;;;;;8332395;28;20037;-53
2023/11/29 16:48:43;;;;;;;4.32;1.35;;;20.00;50.10;;;;;;8330005;28;20106;-49
2023/11/29 16:52:44;;;;;;;4.22;1.20;;;20.00;49.90;;;;;;8330040;28;20108;-50
2023/11/29 16:56:44;;;;;;;1.38;0.80;;;20.00;49.90;;;;;;8337726;28;20057;-51
2023/11/29 17:00:46;;;;;;;3.80;0.98;;;20.00;50.00;;;;;;8361825;28;20033;-51
2023/11/29 17:04:46;;;;;;;3.03;1.27;;;20.00;50.10;;;;;;8362376;28;20068;-50
2023/11/29 17:08:49;;;;;;;5.35;1.08;;;19.90;49.90;;;;;;8362398;28;20037;-49
2023/11/29 17:12:53;;;;;;;2.38;0.98;;;19.90;49.50;;;;;;8362466;28;20067;-48
2023/11/29 17:16:54;;;;;;;1.65;1.08;;;19.80;49.20;;;;;;8362244;28;20116;-48
2023/11/29 17:20:55;;;;;;;;;;;19.80;49.30;;;;;;8358089;28;20029;-50
2023/11/29 17:24:56;;;;;;;2.87;1.03;;;19.80;49.30;;;;;;8345206;28;20012;-53
2023/11/29 17:28:56;;;;;;;6.20;2.35;;;19.90;49.20;;;;;;8350788;28;20036;-47
2023/11/29 17:32:57;;;;;;;2.72;1.30;;;19.90;49.20;;;;;;8328768;28;20029;-50
2023/11/29 17:36:58;;;;;;;4.13;1.05;;;19.90;49.40;;;;;;8328327;28;20033;-50
2023/11/29 17:40:59;;;;;;;;;;;19.90;49.30;;;;;;8359209;28;20113;-49
2023/11/29 17:44:59;;;;;;;2.27;1.13;;;19.90;49.30;;;;;;8361274;28;19909;-53
2023/11/29 17:49:00;;;;;;;5.95;1.13;;;19.90;49.30;;;;;;8360936;28;20029;-48
2023/11/29 17:53:01;;;;;;;3.22;1.20;;;19.90;49.30;;;;;;8360864;28;20111;-48
2023/11/29 17:57:02;;;;;;;2.83;1.08;;;19.90;49.40;;;;;;8361089;28;20025;-50
2023/11/29 18:01:03;;;;;;;2.53;1.27;;;19.90;49.50;;;;;;8360528;28;20060;-50
2023/11/29 18:05:03;;;;;;;2.60;1.20;;;20.00;49.50;;;;;;8360521;28;20503;-48
2023/11/29 18:09:05;;;;;;;1.70;0.90;;;19.90;49.50;;;;;;8360485;28;20132;-49
2023/11/29 18:13:05;;;;;;;1.13;0.82;;;19.90;49.50;;;;;;8359935;28;20061;-52
2023/11/29 18:17:06;;;;;;;1.95;1.05;;;19.90;49.80;;;;;;8360262;28;20517;-52
2023/11/29 18:21:07;;;;;;;1.90;0.77;;;19.90;49.90;;;;;;8355163;28;20038;-52
2023/11/29 18:25:09;;;;;;;2.35;1.17;;;19.90;49.80;;;;;;8338406;28;20028;-50
2023/11/29 18:29:10;;;;;;;1.05;0.95;;;19.90;49.80;;;;;;8350858;28;20040;-48
2023/11/29 18:33:11;;;;;;;3.13;1.05;;;19.90;49.70;;;;;;8326904;28;20018;-48
2023/11/29 18:37:12;;;;;;;;;;;19.90;49.80;;;;;;8327362;28;20044;-47
2023/11/29 18:41:13;;;;;;;1.43;0.80;;;19.90;49.70;;;;;;8327597;28;19909;-50
2023/11/29 18:45:13;;;;;;;1.20;0.90;;;19.90;50.20;;;;;;8326964;28;20034;-52
2023/11/29 18:49:14;;;;;;;1.08;0.90;;;19.90;49.70;;;;;;8326669;28;20037;-53
2023/11/29 18:53:15;;;;;;;4.53;1.10;;;19.90;49.70;;;;;;8325437;28;20084;-51
2023/11/29 18:57:15;;;;;;;1.88;0.95;;;20.00;49.70;;;;;;8348940;28;20048;-51
2023/11/29 19:01:16;;;;;;;3.20;1.38;;;20.00;49.60;;;;;;8332058;28;20037;-53
2023/11/29 19:05:17;;;;;;;0.98;0.80;;;19.90;49.60;;;;;;8326500;28;20446;-48
2023/11/29 19:09:17;;;;;;;1.48;1.10;;;19.90;49.70;;;;;;8332725;28;20478;-49
2023/11/29 19:13:18;;;;;;;4.90;1.05;;;19.90;49.70;;;;;;8359348;28;20108;-48
2023/11/29 19:17:19;;;;;;;1.92;1.27;;;19.90;50.00;;;;;;8359357;28;20063;-53
2023/11/29 19:21:19;;;;;;;1.90;1.00;;;19.90;50.20;;;;;;8359132;28;20071;-49
2023/11/29 19:25:20;;;;;;;1.92;1.08;;;19.90;50.00;;;;;;8332536;28;20029;-49
2023/11/29 19:29:21;;;;;;;3.90;1.02;;;19.90;49.90;;;;;;8358210;28;20036;-49
2023/11/29 19:33:22;;;;;;;1.55;0.93;;;19.90;50.00;;;;;;8365477;28;20505;-50
2023/11/29 19:37:23;;;;;;;1.00;0.80;;;19.90;49.90;;;;;;8365226;28;20033;-49
2023/11/29 19:41:23;;;;;;;2.78;1.00;;;19.90;49.90;;;;;;8365172;28;20057;-48
2023/11/29 19:45:24;;;;;;;3.72;1.00;;;19.90;49.90;;;;;;8365181;28;20479;-48
2023/11/29 19:49:25;;;;;;;2.53;1.48;;;19.90;49.90;;;;;;8364697;28;20033;-48
2023/11/29 19:53:26;;;;;;;2.25;1.15;;;19.90;49.90;;;;;;8364968;28;20116;-47
2023/11/29 19:57:27;;;;;;;1.15;1.00;;;19.90;49.80;;;;;;8364567;28;20036;-48
2023/11/29 20:01:29;;;;;;;1.30;0.85;;;19.90;49.90;;;;;;8365434;28;20375;-47
2023/11/29 20:05:31;;;;;;;2.17;1.13;;;20.00;49.80;;;;;;8364495;28;20037;-48
2023/11/29 20:09:32;;;;;;;5.35;1.02;;;20.00;49.80;;;;;;8364621;28;20078;-50
2023/11/29 20:13:33;;;;;;;2.42;1.00;;;20.00;49.80;;;;;;8364030;28;20033;-48
2023/11/29 20:17:33;;;;;;;1.10;0.90;;;19.90;50.00;;;;;;8364181;28;20159;-48
2023/11/29 20:21:34;;;;;;;1.33;1.10;;;19.90;50.00;;;;;;8362163;28;20036;-47
2023/11/29 20:25:34;;;;;;;2.45;0.90;;;19.90;50.00;;;;;;8335837;28;20107;-47
2023/11/29 20:29:35;;;;;;;1.00;0.93;;;19.90;49.90;;;;;;8359758;28;20079;-45
2023/11/29 20:33:36;;;;;;;1.95;0.60;;;19.90;50.00;;;;;;8363455;28;20036;-53
2023/11/29 20:37:36;;;;;;;2.22;0.70;;;19.90;50.00;;;;;;8363399;28;20486;-54
2023/11/29 20:41:37;;;;;;;4.10;0.85;;;19.90;49.90;;;;;;8363470;28;20210;-54
2023/11/29 20:45:38;;;;;;;1.58;0.93;;;19.90;50.00;;;;;;8363339;28;20497;-52
2023/11/29 20:49:38;;;;;;;2.40;0.90;;;19.80;49.90;;;;;;8363225;28;20037;-54
2023/11/29 20:53:39;;;;;;;1.02;0.90;;;19.90;49.80;;;;;;8363141;28;20064;-53
2023/11/29 20:57:39;;;;;;;3.38;0.90;;;19.80;49.80;;;;;;8362581;28;20394;-53
2023/11/29 21:01:40;;;;;;;2.13;0.80;;;19.80;49.70;;;;;;8362762;28;20558;-53